sensor_id;sensor_type;location;lat;lon;timestamp;P1;durP1;ratioP1;P2;durP2;ratioP2
21458;SDS011;10891;49.350;19.386;2023-06-10T00:01:45;15.57;;;10.85;;
21458;SDS011;10891;49.350;19.386;2023-06-10T00:04:14;20.27;;;12.35;;
21458;SDS011;10891;49.350;19.386;2023-06-10T00:06:42;18.27;;;10.95;;
21458;SDS011;10891;49.350;19.386;2023-06-10T00:09:09;17.77;;;11.43;;
21458;SDS011;10891;49.350;19.386;2023-06-10T00:11:36;15.32;;;11.15;;
21458;SDS011;10891;49.350;19.386;2023-06-10T00:14:04;15.10;;;11.07;;
21458;SDS011;10891;49.350;19.386;2023-06-10T00:16:31;14.55;;;10.90;;
21458;SDS011;10891;49.350;19.386;2023-06-10T00:18:59;20.95;;;11.57;;
21458;SDS011;10891;49.350;19.386;2023-06-10T00:21:29;20.25;;;12.27;;
21458;SDS011;10891;49.350;19.386;2023-06-10T00:24:03;19.50;;;12.35;;
21458;SDS011;10891;49.350;19.386;2023-06-10T00:26:30;16.92;;;11.82;;
21458;SDS011;10891;49.350;19.386;2023-06-10T00:28:58;17.98;;;11.48;;
21458;SDS011;10891;49.350;19.386;2023-06-10T00:31:24;15.88;;;10.85;;
21458;SDS011;10891;49.350;19.386;2023-06-10T00:33:52;16.58;;;11.48;;
21458;SDS011;10891;49.350;19.386;2023-06-10T00:36:19;16.02;;;11.25;;
21458;SDS011;10891;49.350;19.386;2023-06-10T00:38:47;16.20;;;11.23;;
21458;SDS011;10891;49.350;19.386;2023-06-10T00:41:14;17.42;;;12.35;;
21458;SDS011;10891;49.350;19.386;2023-06-10T00:43:41;19.48;;;10.73;;
21458;SDS011;10891;49.350;19.386;2023-06-10T00:46:08;17.80;;;12.77;;
21458;SDS011;10891;49.350;19.386;2023-06-10T00:48:36;14.52;;;11.52;;
21458;SDS011;10891;49.350;19.386;2023-06-10T00:51:04;18.73;;;13.00;;
21458;SDS011;10891;49.350;19.386;2023-06-10T00:53:34;19.58;;;12.75;;
21458;SDS011;10891;49.350;19.386;2023-06-10T00:56:03;17.52;;;12.43;;
21458;SDS011;10891;49.350;19.386;2023-06-10T00:58:30;16.00;;;11.75;;
21458;SDS011;10891;49.350;19.386;2023-06-10T01:00:57;20.13;;;13.20;;
21458;SDS011;10891;49.350;19.386;2023-06-10T01:03:24;23.40;;;12.57;;
21458;SDS011;10891;49.350;19.386;2023-06-10T01:05:53;17.10;;;12.68;;
21458;SDS011;10891;49.350;19.386;2023-06-10T01:08:28;24.42;;;14.35;;
21458;SDS011;10891;49.350;19.386;2023-06-10T01:11:03;22.80;;;13.95;;
21458;SDS011;10891;49.350;19.386;2023-06-10T01:13:40;21.70;;;14.35;;
21458;SDS011;10891;49.350;19.386;2023-06-10T01:16:08;18.83;;;12.25;;
21458;SDS011;10891;49.350;19.386;2023-06-10T01:18:36;16.75;;;12.43;;
21458;SDS011;10891;49.350;19.386;2023-06-10T01:21:03;18.05;;;11.52;;
21458;SDS011;10891;49.350;19.386;2023-06-10T01:23:34;17.30;;;12.52;;
21458;SDS011;10891;49.350;19.386;2023-06-10T01:26:02;18.98;;;13.18;;
21458;SDS011;10891;49.350;19.386;2023-06-10T01:28:33;20.63;;;12.48;;
21458;SDS011;10891;49.350;19.386;2023-06-10T01:31:08;17.50;;;12.48;;
21458;SDS011;10891;49.350;19.386;2023-06-10T01:33:43;17.85;;;13.23;;
21458;SDS011;10891;49.350;19.386;2023-06-10T01:36:12;19.65;;;13.98;;
21458;SDS011;10891;49.350;19.386;2023-06-10T01:38:42;19.60;;;14.23;;
21458;SDS011;10891;49.350;19.386;2023-06-10T01:41:10;20.25;;;13.95;;
21458;SDS011;10891;49.350;19.386;2023-06-10T01:43:38;20.30;;;14.13;;
21458;SDS011;10891;49.350;19.386;2023-06-10T01:46:05;23.85;;;13.50;;
21458;SDS011;10891;49.350;19.386;2023-06-10T01:48:32;18.23;;;13.50;;
21458;SDS011;10891;49.350;19.386;2023-06-10T01:50:59;22.58;;;13.57;;
21458;SDS011;10891;49.350;19.386;2023-06-10T01:53:26;17.90;;;11.95;;
21458;SDS011;10891;49.350;19.386;2023-06-10T01:55:55;19.50;;;13.18;;
21458;SDS011;10891;49.350;19.386;2023-06-10T01:58:21;19.55;;;12.90;;
21458;SDS011;10891;49.350;19.386;2023-06-10T02:00:48;18.42;;;13.25;;
21458;SDS011;10891;49.350;19.386;2023-06-10T02:03:15;18.98;;;12.85;;
21458;SDS011;10891;49.350;19.386;2023-06-10T02:05:43;17.25;;;12.30;;
21458;SDS011;10891;49.350;19.386;2023-06-10T02:08:10;25.02;;;13.60;;
21458;SDS011;10891;49.350;19.386;2023-06-10T02:10:37;22.02;;;13.43;;
21458;SDS011;10891;49.350;19.386;2023-06-10T02:13:05;20.67;;;13.68;;
21458;SDS011;10891;49.350;19.386;2023-06-10T02:15:32;21.02;;;14.20;;
21458;SDS011;10891;49.350;19.386;2023-06-10T02:17:59;21.67;;;12.85;;
21458;SDS011;10891;49.350;19.386;2023-06-10T02:20:26;19.23;;;13.70;;
21458;SDS011;10891;49.350;19.386;2023-06-10T02:22:53;20.80;;;14.15;;
21458;SDS011;10891;49.350;19.386;2023-06-10T02:25:20;19.17;;;14.27;;
21458;SDS011;10891;49.350;19.386;2023-06-10T02:27:46;19.30;;;13.90;;
21458;SDS011;10891;49.350;19.386;2023-06-10T02:30:15;20.77;;;13.50;;
21458;SDS011;10891;49.350;19.386;2023-06-10T02:32:42;19.98;;;14.30;;
21458;SDS011;10891;49.350;19.386;2023-06-10T02:35:12;21.35;;;14.35;;
21458;SDS011;10891;49.350;19.386;2023-06-10T02:37:39;18.25;;;13.45;;
21458;SDS011;10891;49.350;19.386;2023-06-10T02:40:07;20.02;;;14.48;;
21458;SDS011;10891;49.350;19.386;2023-06-10T02:42:35;18.88;;;13.00;;
21458;SDS011;10891;49.350;19.386;2023-06-10T02:45:02;21.27;;;13.80;;
21458;SDS011;10891;49.350;19.386;2023-06-10T02:47:31;17.48;;;13.05;;
21458;SDS011;10891;49.350;19.386;2023-06-10T02:49:57;17.63;;;12.98;;
21458;SDS011;10891;49.350;19.386;2023-06-10T02:52:24;35.75;;;20.88;;
21458;SDS011;10891;49.350;19.386;2023-06-10T02:54:51;28.20;;;16.50;;
21458;SDS011;10891;49.350;19.386;2023-06-10T02:57:18;23.40;;;15.73;;
21458;SDS011;10891;49.350;19.386;2023-06-10T02:59:45;24.13;;;15.05;;
21458;SDS011;10891;49.350;19.386;2023-06-10T03:02:12;16.65;;;11.68;;
21458;SDS011;10891;49.350;19.386;2023-06-10T03:04:41;15.05;;;10.77;;
21458;SDS011;10891;49.350;19.386;2023-06-10T03:07:08;14.55;;;10.15;;
21458;SDS011;10891;49.350;19.386;2023-06-10T03:09:36;19.02;;;10.90;;
21458;SDS011;10891;49.350;19.386;2023-06-10T03:12:03;13.70;;;10.73;;
21458;SDS011;10891;49.350;19.386;2023-06-10T03:14:31;15.57;;;10.27;;
21458;SDS011;10891;49.350;19.386;2023-06-10T03:16:59;13.85;;;9.73;;
21458;SDS011;10891;49.350;19.386;2023-06-10T03:19:26;14.07;;;9.75;;
21458;SDS011;10891;49.350;19.386;2023-06-10T03:21:57;15.13;;;10.13;;
21458;SDS011;10891;49.350;19.386;2023-06-10T03:24:33;16.27;;;9.90;;
21458;SDS011;10891;49.350;19.386;2023-06-10T03:27:00;15.70;;;9.32;;
21458;SDS011;10891;49.350;19.386;2023-06-10T03:29:30;16.88;;;10.00;;
21458;SDS011;10891;49.350;19.386;2023-06-10T03:31:57;16.83;;;10.02;;
21458;SDS011;10891;49.350;19.386;2023-06-10T03:34:24;16.02;;;10.57;;
21458;SDS011;10891;49.350;19.386;2023-06-10T03:36:51;16.83;;;11.52;;
21458;SDS011;10891;49.350;19.386;2023-06-10T03:39:19;19.30;;;12.32;;
21458;SDS011;10891;49.350;19.386;2023-06-10T03:41:46;20.48;;;11.95;;
21458;SDS011;10891;49.350;19.386;2023-06-10T03:44:13;38.28;;;25.08;;
21458;SDS011;10891;49.350;19.386;2023-06-10T03:46:40;17.52;;;11.13;;
21458;SDS011;10891;49.350;19.386;2023-06-10T03:49:07;17.23;;;11.07;;
21458;SDS011;10891;49.350;19.386;2023-06-10T03:51:35;19.45;;;11.75;;
21458;SDS011;10891;49.350;19.386;2023-06-10T03:54:02;23.20;;;11.65;;
21458;SDS011;10891;49.350;19.386;2023-06-10T03:56:30;24.42;;;11.75;;
21458;SDS011;10891;49.350;19.386;2023-06-10T03:58:57;20.42;;;11.13;;
21458;SDS011;10891;49.350;19.386;2023-06-10T04:01:25;27.02;;;11.02;;
21458;SDS011;10891;49.350;19.386;2023-06-10T04:03:53;24.30;;;14.95;;
21458;SDS011;10891;49.350;19.386;2023-06-10T04:06:20;20.15;;;14.10;;
21458;SDS011;10891;49.350;19.386;2023-06-10T04:08:50;19.02;;;12.50;;
21458;SDS011;10891;49.350;19.386;2023-06-10T04:11:17;12.45;;;9.02;;
21458;SDS011;10891;49.350;19.386;2023-06-10T04:13:45;14.63;;;8.77;;
21458;SDS011;10891;49.350;19.386;2023-06-10T04:16:12;10.93;;;8.30;;
21458;SDS011;10891;49.350;19.386;2023-06-10T04:18:39;9.30;;;7.00;;
21458;SDS011;10891;49.350;19.386;2023-06-10T04:21:07;11.20;;;8.43;;
21458;SDS011;10891;49.350;19.386;2023-06-10T04:23:34;14.75;;;8.05;;
21458;SDS011;10891;49.350;19.386;2023-06-10T04:26:01;12.13;;;7.45;;
21458;SDS011;10891;49.350;19.386;2023-06-10T04:28:28;12.27;;;7.50;;
21458;SDS011;10891;49.350;19.386;2023-06-10T04:30:56;9.45;;;7.35;;
21458;SDS011;10891;49.350;19.386;2023-06-10T04:33:23;13.15;;;7.25;;
21458;SDS011;10891;49.350;19.386;2023-06-10T04:35:50;9.13;;;6.38;;
21458;SDS011;10891;49.350;19.386;2023-06-10T04:38:17;147.90;;;76.72;;
21458;SDS011;10891;49.350;19.386;2023-06-10T04:40:44;36.53;;;28.85;;
21458;SDS011;10891;49.350;19.386;2023-06-10T04:43:11;27.42;;;21.98;;
21458;SDS011;10891;49.350;19.386;2023-06-10T04:45:38;82.25;;;51.15;;
21458;SDS011;10891;49.350;19.386;2023-06-10T04:48:06;34.42;;;24.70;;
21458;SDS011;10891;49.350;19.386;2023-06-10T04:50:33;60.30;;;40.72;;
21458;SDS011;10891;49.350;19.386;2023-06-10T04:53:00;11.52;;;8.80;;
21458;SDS011;10891;49.350;19.386;2023-06-10T04:55:27;13.18;;;9.50;;
21458;SDS011;10891;49.350;19.386;2023-06-10T04:57:54;13.52;;;8.60;;
21458;SDS011;10891;49.350;19.386;2023-06-10T05:00:21;11.20;;;9.82;;
21458;SDS011;10891;49.350;19.386;2023-06-10T05:02:48;15.60;;;10.80;;
21458;SDS011;10891;49.350;19.386;2023-06-10T05:05:17;12.63;;;9.18;;
21458;SDS011;10891;49.350;19.386;2023-06-10T05:07:45;30.77;;;20.02;;
21458;SDS011;10891;49.350;19.386;2023-06-10T05:10:11;11.15;;;7.57;;
21458;SDS011;10891;49.350;19.386;2023-06-10T05:12:38;13.10;;;9.52;;
21458;SDS011;10891;49.350;19.386;2023-06-10T05:15:06;13.18;;;8.73;;
21458;SDS011;10891;49.350;19.386;2023-06-10T05:17:33;18.95;;;14.98;;
21458;SDS011;10891;49.350;19.386;2023-06-10T05:20:01;13.65;;;9.18;;
21458;SDS011;10891;49.350;19.386;2023-06-10T05:22:29;15.15;;;10.38;;
21458;SDS011;10891;49.350;19.386;2023-06-10T05:24:56;11.82;;;7.85;;
21458;SDS011;10891;49.350;19.386;2023-06-10T05:27:23;13.73;;;11.57;;
21458;SDS011;10891;49.350;19.386;2023-06-10T05:29:50;13.98;;;12.35;;
21458;SDS011;10891;49.350;19.386;2023-06-10T05:32:17;10.98;;;8.93;;
21458;SDS011;10891;49.350;19.386;2023-06-10T05:34:44;13.35;;;10.95;;
21458;SDS011;10891;49.350;19.386;2023-06-10T05:37:12;14.10;;;9.35;;
21458;SDS011;10891;49.350;19.386;2023-06-10T05:39:40;17.30;;;13.90;;
21458;SDS011;10891;49.350;19.386;2023-06-10T05:42:07;14.55;;;10.32;;
21458;SDS011;10891;49.350;19.386;2023-06-10T05:44:35;33.67;;;20.27;;
21458;SDS011;10891;49.350;19.386;2023-06-10T05:47:02;13.75;;;10.10;;
21458;SDS011;10891;49.350;19.386;2023-06-10T05:49:29;19.58;;;13.52;;
21458;SDS011;10891;49.350;19.386;2023-06-10T05:51:56;15.48;;;9.88;;
21458;SDS011;10891;49.350;19.386;2023-06-10T05:54:24;14.70;;;8.55;;
21458;SDS011;10891;49.350;19.386;2023-06-10T05:56:52;10.82;;;8.82;;
21458;SDS011;10891;49.350;19.386;2023-06-10T05:59:19;12.60;;;7.95;;
21458;SDS011;10891;49.350;19.386;2023-06-10T06:01:47;10.65;;;8.35;;
21458;SDS011;10891;49.350;19.386;2023-06-10T06:04:15;14.07;;;7.03;;
21458;SDS011;10891;49.350;19.386;2023-06-10T06:06:42;9.32;;;6.72;;
21458;SDS011;10891;49.350;19.386;2023-06-10T06:09:09;9.82;;;7.72;;
21458;SDS011;10891;49.350;19.386;2023-06-10T06:11:36;13.05;;;9.05;;
21458;SDS011;10891;49.350;19.386;2023-06-10T06:14:04;23.42;;;13.98;;
21458;SDS011;10891;49.350;19.386;2023-06-10T06:16:31;13.63;;;8.85;;
21458;SDS011;10891;49.350;19.386;2023-06-10T06:18:59;21.20;;;14.25;;
21458;SDS011;10891;49.350;19.386;2023-06-10T06:21:26;19.63;;;14.20;;
21458;SDS011;10891;49.350;19.386;2023-06-10T06:23:53;17.02;;;6.95;;
21458;SDS011;10891;49.350;19.386;2023-06-10T06:26:20;7.03;;;5.55;;
21458;SDS011;10891;49.350;19.386;2023-06-10T06:28:47;10.75;;;7.95;;
21458;SDS011;10891;49.350;19.386;2023-06-10T06:31:18;8.80;;;6.53;;
21458;SDS011;10891;49.350;19.386;2023-06-10T06:33:49;9.50;;;6.65;;
21458;SDS011;10891;49.350;19.386;2023-06-10T06:36:16;7.70;;;6.30;;
21458;SDS011;10891;49.350;19.386;2023-06-10T06:38:45;10.50;;;6.45;;
21458;SDS011;10891;49.350;19.386;2023-06-10T06:41:15;7.88;;;6.47;;
21458;SDS011;10891;49.350;19.386;2023-06-10T06:43:43;8.57;;;7.00;;
21458;SDS011;10891;49.350;19.386;2023-06-10T06:46:10;10.52;;;6.63;;
21458;SDS011;10891;49.350;19.386;2023-06-10T06:48:39;12.25;;;7.53;;
21458;SDS011;10891;49.350;19.386;2023-06-10T06:51:06;9.48;;;6.72;;
21458;SDS011;10891;49.350;19.386;2023-06-10T06:53:33;11.85;;;7.38;;
21458;SDS011;10891;49.350;19.386;2023-06-10T06:56:03;12.70;;;7.35;;
21458;SDS011;10891;49.350;19.386;2023-06-10T06:58:31;11.18;;;6.68;;
21458;SDS011;10891;49.350;19.386;2023-06-10T07:01:01;11.23;;;7.28;;
21458;SDS011;10891;49.350;19.386;2023-06-10T07:03:28;8.13;;;5.95;;
21458;SDS011;10891;49.350;19.386;2023-06-10T07:05:57;10.65;;;7.30;;
21458;SDS011;10891;49.350;19.386;2023-06-10T07:08:30;9.13;;;6.55;;
21458;SDS011;10891;49.350;19.386;2023-06-10T07:11:00;9.02;;;7.45;;
21458;SDS011;10891;49.350;19.386;2023-06-10T07:13:27;9.00;;;6.68;;
21458;SDS011;10891;49.350;19.386;2023-06-10T07:15:54;9.63;;;7.65;;
21458;SDS011;10891;49.350;19.386;2023-06-10T07:18:21;11.05;;;6.93;;
21458;SDS011;10891;49.350;19.386;2023-06-10T07:20:48;9.70;;;7.55;;
21458;SDS011;10891;49.350;19.386;2023-06-10T07:23:17;11.30;;;7.78;;
21458;SDS011;10891;49.350;19.386;2023-06-10T07:25:44;10.70;;;7.72;;
21458;SDS011;10891;49.350;19.386;2023-06-10T07:28:14;11.65;;;7.97;;
21458;SDS011;10891;49.350;19.386;2023-06-10T07:30:41;9.10;;;6.22;;
21458;SDS011;10891;49.350;19.386;2023-06-10T07:33:09;9.88;;;6.60;;
21458;SDS011;10891;49.350;19.386;2023-06-10T07:35:36;9.90;;;6.90;;
21458;SDS011;10891;49.350;19.386;2023-06-10T07:38:03;9.40;;;6.43;;
21458;SDS011;10891;49.350;19.386;2023-06-10T07:40:31;13.82;;;6.65;;
21458;SDS011;10891;49.350;19.386;2023-06-10T07:42:58;9.35;;;6.50;;
21458;SDS011;10891;49.350;19.386;2023-06-10T07:45:26;10.65;;;7.25;;
21458;SDS011;10891;49.350;19.386;2023-06-10T07:47:53;9.98;;;6.45;;
21458;SDS011;10891;49.350;19.386;2023-06-10T07:50:20;10.50;;;7.07;;
21458;SDS011;10891;49.350;19.386;2023-06-10T07:52:47;11.68;;;6.57;;
21458;SDS011;10891;49.350;19.386;2023-06-10T07:55:14;11.23;;;7.05;;
21458;SDS011;10891;49.350;19.386;2023-06-10T07:57:43;10.15;;;6.68;;
21458;SDS011;10891;49.350;19.386;2023-06-10T08:00:10;8.90;;;7.28;;
21458;SDS011;10891;49.350;19.386;2023-06-10T08:02:38;9.13;;;7.07;;
21458;SDS011;10891;49.350;19.386;2023-06-10T08:05:05;20.23;;;15.35;;
21458;SDS011;10891;49.350;19.386;2023-06-10T08:07:33;10.02;;;7.43;;
21458;SDS011;10891;49.350;19.386;2023-06-10T08:10:00;14.77;;;8.23;;
21458;SDS011;10891;49.350;19.386;2023-06-10T08:12:27;9.13;;;7.20;;
21458;SDS011;10891;49.350;19.386;2023-06-10T08:14:55;14.82;;;9.25;;
21458;SDS011;10891;49.350;19.386;2023-06-10T08:17:22;40.15;;;23.98;;
21458;SDS011;10891;49.350;19.386;2023-06-10T08:19:49;16.17;;;11.20;;
21458;SDS011;10891;49.350;19.386;2023-06-10T08:22:16;14.13;;;8.68;;
21458;SDS011;10891;49.350;19.386;2023-06-10T08:24:43;11.88;;;6.78;;
21458;SDS011;10891;49.350;19.386;2023-06-10T08:27:10;8.70;;;6.03;;
21458;SDS011;10891;49.350;19.386;2023-06-10T08:29:37;7.75;;;6.25;;
21458;SDS011;10891;49.350;19.386;2023-06-10T08:32:06;10.50;;;6.85;;
21458;SDS011;10891;49.350;19.386;2023-06-10T08:34:33;8.13;;;6.32;;
21458;SDS011;10891;49.350;19.386;2023-06-10T08:37:01;7.93;;;5.93;;
21458;SDS011;10891;49.350;19.386;2023-06-10T08:39:28;10.57;;;6.32;;
21458;SDS011;10891;49.350;19.386;2023-06-10T08:42:00;13.02;;;7.32;;
21458;SDS011;10891;49.350;19.386;2023-06-10T08:44:35;10.50;;;6.97;;
21458;SDS011;10891;49.350;19.386;2023-06-10T08:47:06;17.35;;;7.95;;
21458;SDS011;10891;49.350;19.386;2023-06-10T08:49:41;9.00;;;6.35;;
21458;SDS011;10891;49.350;19.386;2023-06-10T08:52:10;8.48;;;6.82;;
21458;SDS011;10891;49.350;19.386;2023-06-10T08:54:40;12.20;;;6.32;;
21458;SDS011;10891;49.350;19.386;2023-06-10T08:57:13;11.55;;;6.47;;
21458;SDS011;10891;49.350;19.386;2023-06-10T08:59:45;14.45;;;6.85;;
21458;SDS011;10891;49.350;19.386;2023-06-10T09:02:15;11.32;;;6.82;;
21458;SDS011;10891;49.350;19.386;2023-06-10T09:04:44;11.45;;;7.40;;
21458;SDS011;10891;49.350;19.386;2023-06-10T09:07:13;9.98;;;6.78;;
21458;SDS011;10891;49.350;19.386;2023-06-10T09:09:41;12.80;;;7.10;;
21458;SDS011;10891;49.350;19.386;2023-06-10T09:12:09;26.70;;;18.02;;
21458;SDS011;10891;49.350;19.386;2023-06-10T09:14:36;7.35;;;6.40;;
21458;SDS011;10891;49.350;19.386;2023-06-10T09:17:03;8.43;;;5.75;;
21458;SDS011;10891;49.350;19.386;2023-06-10T09:19:33;11.40;;;7.28;;
21458;SDS011;10891;49.350;19.386;2023-06-10T09:22:01;10.45;;;7.40;;
21458;SDS011;10891;49.350;19.386;2023-06-10T09:24:28;7.13;;;5.90;;
21458;SDS011;10891;49.350;19.386;2023-06-10T09:27:01;6.80;;;5.57;;
21458;SDS011;10891;49.350;19.386;2023-06-10T09:29:29;9.68;;;5.90;;
21458;SDS011;10891;49.350;19.386;2023-06-10T09:31:56;8.73;;;5.88;;
21458;SDS011;10891;49.350;19.386;2023-06-10T09:34:24;7.13;;;5.70;;
21458;SDS011;10891;49.350;19.386;2023-06-10T09:36:53;8.82;;;6.10;;
21458;SDS011;10891;49.350;19.386;2023-06-10T09:39:20;11.48;;;5.10;;
21458;SDS011;10891;49.350;19.386;2023-06-10T09:41:47;10.63;;;4.85;;
21458;SDS011;10891;49.350;19.386;2023-06-10T09:44:15;12.13;;;6.78;;
21458;SDS011;10891;49.350;19.386;2023-06-10T09:46:44;10.13;;;6.32;;
21458;SDS011;10891;49.350;19.386;2023-06-10T09:49:12;18.33;;;6.60;;
21458;SDS011;10891;49.350;19.386;2023-06-10T09:51:48;10.73;;;6.55;;
21458;SDS011;10891;49.350;19.386;2023-06-10T09:54:18;12.65;;;6.80;;
21458;SDS011;10891;49.350;19.386;2023-06-10T09:56:46;13.88;;;7.75;;
21458;SDS011;10891;49.350;19.386;2023-06-10T09:59:13;23.05;;;9.70;;
21458;SDS011;10891;49.350;19.386;2023-06-10T10:01:41;17.33;;;9.52;;
21458;SDS011;10891;49.350;19.386;2023-06-10T10:04:08;14.57;;;10.85;;
21458;SDS011;10891;49.350;19.386;2023-06-10T10:06:35;17.88;;;11.02;;
21458;SDS011;10891;49.350;19.386;2023-06-10T10:09:02;16.50;;;11.90;;
21458;SDS011;10891;49.350;19.386;2023-06-10T10:11:31;15.98;;;13.30;;
21458;SDS011;10891;49.350;19.386;2023-06-10T10:14:00;18.60;;;14.07;;
21458;SDS011;10891;49.350;19.386;2023-06-10T10:16:33;25.00;;;17.23;;
21458;SDS011;10891;49.350;19.386;2023-06-10T10:19:06;24.10;;;16.83;;
21458;SDS011;10891;49.350;19.386;2023-06-10T10:21:37;28.13;;;20.13;;
21458;SDS011;10891;49.350;19.386;2023-06-10T10:24:09;29.70;;;19.65;;
21458;SDS011;10891;49.350;19.386;2023-06-10T10:26:43;27.60;;;20.48;;
21458;SDS011;10891;49.350;19.386;2023-06-10T10:29:14;32.83;;;23.60;;
21458;SDS011;10891;49.350;19.386;2023-06-10T10:31:46;35.83;;;23.30;;
21458;SDS011;10891;49.350;19.386;2023-06-10T10:34:18;35.58;;;24.35;;
21458;SDS011;10891;49.350;19.386;2023-06-10T10:36:47;40.85;;;27.25;;
21458;SDS011;10891;49.350;19.386;2023-06-10T10:39:16;38.85;;;28.27;;
21458;SDS011;10891;49.350;19.386;2023-06-10T10:41:45;41.35;;;28.33;;
21458;SDS011;10891;49.350;19.386;2023-06-10T10:44:14;37.80;;;26.33;;
21458;SDS011;10891;49.350;19.386;2023-06-10T10:46:42;42.97;;;29.85;;
21458;SDS011;10891;49.350;19.386;2023-06-10T10:49:10;41.67;;;28.88;;
21458;SDS011;10891;49.350;19.386;2023-06-10T10:51:52;44.60;;;29.60;;
21458;SDS011;10891;49.350;19.386;2023-06-10T10:54:29;39.97;;;27.10;;
21458;SDS011;10891;49.350;19.386;2023-06-10T10:57:17;41.83;;;27.75;;
21458;SDS011;10891;49.350;19.386;2023-06-10T10:59:46;41.92;;;29.17;;
21458;SDS011;10891;49.350;19.386;2023-06-10T11:02:31;39.72;;;24.80;;
21458;SDS011;10891;49.350;19.386;2023-06-10T11:05:01;40.13;;;27.75;;
21458;SDS011;10891;49.350;19.386;2023-06-10T11:07:29;36.03;;;26.88;;
21458;SDS011;10891;49.350;19.386;2023-06-10T11:09:57;35.90;;;24.75;;
21458;SDS011;10891;49.350;19.386;2023-06-10T11:12:28;34.95;;;25.35;;
21458;SDS011;10891;49.350;19.386;2023-06-10T11:15:14;45.08;;;29.17;;
21458;SDS011;10891;49.350;19.386;2023-06-10T11:20:43;47.28;;;32.28;;
21458;SDS011;10891;49.350;19.386;2023-06-10T11:23:15;37.97;;;29.20;;
21458;SDS011;10891;49.350;19.386;2023-06-10T11:26:14;38.13;;;29.35;;
21458;SDS011;10891;49.350;19.386;2023-06-10T11:31:30;47.67;;;31.80;;
21458;SDS011;10891;49.350;19.386;2023-06-10T11:33:58;39.00;;;27.38;;
21458;SDS011;10891;49.350;19.386;2023-06-10T11:36:27;36.60;;;25.60;;
21458;SDS011;10891;49.350;19.386;2023-06-10T11:38:55;40.72;;;28.77;;
21458;SDS011;10891;49.350;19.386;2023-06-10T11:41:23;34.83;;;24.25;;
21458;SDS011;10891;49.350;19.386;2023-06-10T11:43:52;35.22;;;26.55;;
21458;SDS011;10891;49.350;19.386;2023-06-10T11:46:22;38.17;;;27.58;;
21458;SDS011;10891;49.350;19.386;2023-06-10T11:48:52;36.83;;;25.75;;
21458;SDS011;10891;49.350;19.386;2023-06-10T11:51:20;39.17;;;27.88;;
21458;SDS011;10891;49.350;19.386;2023-06-10T11:53:48;37.10;;;24.75;;
21458;SDS011;10891;49.350;19.386;2023-06-10T11:56:19;37.38;;;26.50;;
21458;SDS011;10891;49.350;19.386;2023-06-10T11:58:52;37.15;;;28.23;;
21458;SDS011;10891;49.350;19.386;2023-06-10T12:01:22;42.08;;;30.35;;
21458;SDS011;10891;49.350;19.386;2023-06-10T12:03:56;45.85;;;30.70;;
21458;SDS011;10891;49.350;19.386;2023-06-10T12:06:25;40.90;;;29.33;;
21458;SDS011;10891;49.350;19.386;2023-06-10T12:08:53;45.22;;;31.02;;
21458;SDS011;10891;49.350;19.386;2023-06-10T12:11:20;48.63;;;32.85;;
21458;SDS011;10891;49.350;19.386;2023-06-10T12:13:48;49.67;;;34.35;;
21458;SDS011;10891;49.350;19.386;2023-06-10T12:16:16;48.90;;;34.95;;
21458;SDS011;10891;49.350;19.386;2023-06-10T12:18:46;48.90;;;33.65;;
21458;SDS011;10891;49.350;19.386;2023-06-10T12:21:23;45.17;;;32.15;;
21458;SDS011;10891;49.350;19.386;2023-06-10T12:24:04;64.82;;;44.45;;
21458;SDS011;10891;49.350;19.386;2023-06-10T12:26:39;50.83;;;35.63;;
21458;SDS011;10891;49.350;19.386;2023-06-10T12:29:19;54.40;;;39.60;;
21458;SDS011;10891;49.350;19.386;2023-06-10T12:31:57;50.15;;;36.42;;
21458;SDS011;10891;49.350;19.386;2023-06-10T12:34:30;42.83;;;31.08;;
21458;SDS011;10891;49.350;19.386;2023-06-10T12:36:58;41.78;;;31.42;;
21458;SDS011;10891;49.350;19.386;2023-06-10T12:39:26;43.58;;;31.17;;
21458;SDS011;10891;49.350;19.386;2023-06-10T12:41:53;30.25;;;21.80;;
21458;SDS011;10891;49.350;19.386;2023-06-10T12:44:31;36.15;;;28.10;;
21458;SDS011;10891;49.350;19.386;2023-06-10T12:46:59;28.60;;;23.90;;
21458;SDS011;10891;49.350;19.386;2023-06-10T12:49:27;32.83;;;23.45;;
21458;SDS011;10891;49.350;19.386;2023-06-10T12:51:56;32.75;;;25.92;;
21458;SDS011;10891;49.350;19.386;2023-06-10T12:54:23;33.90;;;27.95;;
21458;SDS011;10891;49.350;19.386;2023-06-10T12:56:50;35.17;;;28.10;;
21458;SDS011;10891;49.350;19.386;2023-06-10T12:59:18;33.33;;;24.85;;
21458;SDS011;10891;49.350;19.386;2023-06-10T13:01:49;34.22;;;26.65;;
21458;SDS011;10891;49.350;19.386;2023-06-10T13:04:17;34.88;;;27.48;;
21458;SDS011;10891;49.350;19.386;2023-06-10T13:06:44;40.33;;;29.35;;
21458;SDS011;10891;49.350;19.386;2023-06-10T13:09:14;41.60;;;29.73;;
21458;SDS011;10891;49.350;19.386;2023-06-10T13:11:41;42.92;;;32.20;;
21458;SDS011;10891;49.350;19.386;2023-06-10T13:14:10;43.17;;;31.80;;
21458;SDS011;10891;49.350;19.386;2023-06-10T13:16:37;41.95;;;33.10;;
21458;SDS011;10891;49.350;19.386;2023-06-10T13:19:04;35.03;;;26.42;;
21458;SDS011;10891;49.350;19.386;2023-06-10T13:21:32;45.08;;;32.28;;
21458;SDS011;10891;49.350;19.386;2023-06-10T13:23:59;46.80;;;32.95;;
21458;SDS011;10891;49.350;19.386;2023-06-10T13:26:28;45.35;;;31.75;;
21458;SDS011;10891;49.350;19.386;2023-06-10T13:28:56;49.17;;;35.45;;
21458;SDS011;10891;49.350;19.386;2023-06-10T13:31:23;50.22;;;34.70;;
21458;SDS011;10891;49.350;19.386;2023-06-10T13:33:50;32.58;;;26.80;;
21458;SDS011;10891;49.350;19.386;2023-06-10T13:36:17;31.77;;;22.85;;
21458;SDS011;10891;49.350;19.386;2023-06-10T13:38:44;29.65;;;23.27;;
21458;SDS011;10891;49.350;19.386;2023-06-10T13:41:12;25.00;;;15.55;;
21458;SDS011;10891;49.350;19.386;2023-06-10T13:43:41;26.27;;;19.50;;
21458;SDS011;10891;49.350;19.386;2023-06-10T13:46:08;23.73;;;17.05;;
21458;SDS011;10891;49.350;19.386;2023-06-10T13:48:35;24.08;;;16.88;;
21458;SDS011;10891;49.350;19.386;2023-06-10T13:51:03;24.17;;;16.95;;
21458;SDS011;10891;49.350;19.386;2023-06-10T13:53:30;22.63;;;14.85;;
21458;SDS011;10891;49.350;19.386;2023-06-10T13:55:57;24.33;;;14.40;;
21458;SDS011;10891;49.350;19.386;2023-06-10T13:58:25;20.92;;;15.70;;
21458;SDS011;10891;49.350;19.386;2023-06-10T14:00:53;20.08;;;15.48;;
21458;SDS011;10891;49.350;19.386;2023-06-10T14:03:21;25.85;;;17.17;;
21458;SDS011;10891;49.350;19.386;2023-06-10T14:05:49;25.23;;;16.65;;
21458;SDS011;10891;49.350;19.386;2023-06-10T14:08:16;24.60;;;17.30;;
21458;SDS011;10891;49.350;19.386;2023-06-10T14:10:43;24.95;;;17.88;;
21458;SDS011;10891;49.350;19.386;2023-06-10T14:13:10;20.52;;;16.42;;
21458;SDS011;10891;49.350;19.386;2023-06-10T14:15:38;31.15;;;16.25;;
21458;SDS011;10891;49.350;19.386;2023-06-10T14:18:06;24.67;;;16.48;;
21458;SDS011;10891;49.350;19.386;2023-06-10T14:20:34;22.23;;;15.20;;
21458;SDS011;10891;49.350;19.386;2023-06-10T14:23:01;20.83;;;15.43;;
21458;SDS011;10891;49.350;19.386;2023-06-10T14:25:28;24.42;;;15.30;;
21458;SDS011;10891;49.350;19.386;2023-06-10T14:27:56;21.63;;;16.00;;